Time;durP1;ratioP1;P1;durP2;ratioP2;P2;SDS_P1;SDS_P2;PMS_P1;PMS_P2;Temp;Humidity;BMP_temperature;BMP_pressure;BME280_temperature;BME280_humidity;BME280_pressure;Samples;Min_cycle;Max_cycle;Signal;HPM_P1;HPM_P2
2023/01/03 00:01:31;;;;;;;2.15;1.38;;;;;;;;;;5048288;28;20084;-74
2023/01/03 00:03:59;;;;;;;2.70;1.60;;;;;;;;;;5032518;28;20084;-74
2023/01/03 00:06:26;;;;;;;3.10;1.60;;;;;;;;;;5045721;28;20057;-74
2023/01/03 00:08:53;;;;;;;1.90;1.40;;;;;;;;;;5046967;28;20136;-74
2023/01/03 00:12:22;;;;;;;3.42;1.63;;;;;;;;;;5049768;28;20047;-74
2023/01/03 00:14:09;;;;;;;2.72;1.50;;;;;;;;;;5046616;28;20053;-74
2023/01/03 00:16:36;;;;;;;3.13;1.60;;;;;;;;;;5049934;28;20452;-73
2023/01/03 00:19:05;;;;;;;3.45;1.60;;;;;;;;;;5037317;28;20059;-73
2023/01/03 00:21:33;;;;;;;1.60;1.30;;;;;;;;;;5052762;28;20067;-72
2023/01/03 00:24:00;;;;;;;2.05;1.55;;;;;;;;;;5052387;28;20409;-72
2023/01/03 00:26:27;;;;;;;2.05;1.40;;;;;;;;;;5053578;28;20380;-73
2023/01/03 00:28:54;;;;;;;3.67;1.70;;;;;;;;;;5053532;28;20479;-73
2023/01/03 00:31:22;;;;;;;2.75;1.60;;;;;;;;;;5046573;28;20491;-73
2023/01/03 00:33:49;;;;;;;3.42;1.60;;;;;;;;;;5013746;28;20455;-73
2023/01/03 00:36:16;;;;;;;2.55;1.40;;;;;;;;;;5016770;28;20045;-73
2023/01/03 00:38:43;;;;;;;3.30;1.48;;;;;;;;;;5032385;28;20100;-73
2023/01/03 00:41:11;;;;;;;2.92;1.65;;;14.20;73.10;;;;;;5033170;28;20581;-73
2023/01/03 00:43:38;;;;;;;2.85;1.50;;;;;;;;;;5033068;28;20060;-73
2023/01/03 00:46:06;;;;;;;1.60;1.30;;;;;;;;;;5029470;28;20383;-73
2023/01/03 00:48:34;;;;;;;3.97;1.50;;;;;;;;;;5013177;28;20136;-73
2023/01/03 00:51:05;;;;;;;2.78;1.60;;;;;;;;;;5013401;28;20057;-73
2023/01/03 00:53:32;;;;;;;2.17;1.30;;;;;;;;;;5012842;28;20406;-73
2023/01/03 00:56:02;;;;;;;3.53;1.50;;;;;;;;;;5014338;28;20483;-73
2023/01/03 00:58:30;;;;;;;2.88;1.45;;;;;;;;;;5012919;28;20060;-73
2023/01/03 01:00:57;;;;;;;2.67;1.50;;;;;;;;;;5013355;28;20124;-74
2023/01/03 01:03:24;;;;;;;2.25;1.42;;;;;;;;;;5012744;28;20058;-74
2023/01/03 01:05:52;;;;;;;1.85;1.38;;;;;;;;;;5013034;28;20054;-74
2023/01/03 01:08:19;;;;;;;1.42;1.20;;;;;;;;;;5012715;28;20057;-73
2023/01/03 01:11:00;;;;;;;2.85;1.42;;;;;;;;;;5012547;28;20053;-73
2023/01/03 01:13:28;;;;;;;2.95;1.63;;;;;;;;;;5012657;28;20096;-73
2023/01/03 01:15:55;;;;;;;2.15;1.52;;;;;;;;;;5012886;28;20116;-73
2023/01/03 01:18:22;;;;;;;3.38;1.40;;;;;;;;;;5015661;28;20132;-73
2023/01/03 01:20:49;;;;;;;1.90;1.42;;;;;;;;;;5032255;28;20059;-73
2023/01/03 01:23:17;;;;;;;1.88;1.33;;;;;;;;;;5032135;28;20060;-73
2023/01/03 01:25:44;;;;;;;3.67;1.60;;;;;;;;;;5032238;28;20056;-73
2023/01/03 01:28:11;;;;;;;2.85;1.60;;;;;;;;;;5031823;28;20049;-73
2023/01/03 01:30:38;;;;;;;3.85;1.52;;;;;;;;;;5015617;28;20054;-73
2023/01/03 01:33:05;;;;;;;4.40;1.65;;;;;;;;;;5012068;28;20060;-73
2023/01/03 01:35:32;;;;;;;2.13;1.48;;;;;;;;;;5012383;28;20074;-73
2023/01/03 01:37:59;;;;;;;2.97;1.45;;;;;;;;;;5026793;28;20057;-73
2023/01/03 01:40:28;;;;;;;2.25;1.50;;;;;;;;;;5012481;28;20132;-73
2023/01/03 01:45:39;;;;;;;2.08;1.48;;;;;;;;;;5030524;28;20076;-73
2023/01/03 01:48:07;;;;;;;2.15;1.60;;;13.90;74.30;;;;;;5031987;28;20057;-73
2023/01/03 01:50:37;;;;;;;2.65;1.52;;;13.90;75.00;;;;;;5031002;28;20061;-73
2023/01/03 01:53:06;;;;;;;2.80;1.50;;;13.90;75.00;;;;;;5031945;28;20071;-73
2023/01/03 01:55:37;;;;;;;1.70;1.40;;;13.90;75.00;;;;;;5031516;28;20128;-73
2023/01/03 01:58:04;;;;;;;2.33;1.52;;;;;;;;;;5031459;28;20132;-74
2023/01/03 02:00:31;;;;;;;2.42;1.40;;;;;;;;;;5031760;28;20049;-73
2023/01/03 02:02:58;;;;;;;2.33;1.63;;;;;;;;;;5031455;28;20053;-73
2023/01/03 02:05:25;;;;;;;2.92;1.63;;;;;;;;;;5032751;28;20053;-73
2023/01/03 02:07:52;;;;;;;2.13;1.30;;;;;;;;;;5031227;28;20049;-73
2023/01/03 02:10:19;;;;;;;3.60;1.50;;;;;;;;;;5031758;28;20049;-73
2023/01/03 02:13:06;;;;;;;2.92;1.60;;;;;;;;;;5026936;28;20056;-73
2023/01/03 02:15:45;;;;;;;3.20;1.70;;;13.90;75.10;;;;;;5011625;28;20054;-73
2023/01/03 02:18:19;;;;;;;2.08;1.40;;;13.80;73.10;;;;;;5011544;28;20145;-73
2023/01/03 02:21:02;;;;;;;1.88;1.45;;;13.80;75.10;;;;;;5031507;28;20063;-73
2023/01/03 02:23:39;;;;;;;3.55;1.60;;;13.80;75.10;;;;;;5031401;28;20437;-73
2023/01/03 02:26:15;;;;;;;3.45;1.67;;;;;;;;;;5030631;28;20410;-73
2023/01/03 02:29:06;;;;;;;2.40;1.60;;;13.70;75.00;;;;;;5024622;28;20056;-73
2023/01/03 02:31:35;;;;;;;2.03;1.48;;;;;;;;;;5011220;28;20054;-73
2023/01/03 02:34:03;;;;;;;2.42;1.90;;;;;;;;;;5011424;28;20064;-73
2023/01/03 02:36:32;;;;;;;2.53;1.83;;;;;;;;;;5017774;28;20049;-73
2023/01/03 02:39:01;;;;;;;3.67;1.50;;;13.80;75.10;;;;;;5025904;28;20053;-73
2023/01/03 02:41:31;;;;;;;2.90;1.90;;;13.70;73.40;;;;;;5011398;28;20483;-73
2023/01/03 02:43:59;;;;;;;2.72;1.70;;;;;;;;;;5011437;28;20053;-73
2023/01/03 02:46:27;;;;;;;1.98;1.67;;;;;;;;;;5012480;28;20052;-73
2023/01/03 02:48:57;;;;;;;2.95;1.80;;;13.80;73.90;;;;;;5011418;28;20061;-73
2023/01/03 02:51:27;;;;;;;2.40;1.70;;;13.70;75.20;;;;;;5011376;28;20058;-73
2023/01/03 02:53:54;;;;;;;2.30;1.80;;;;;;;;;;5013456;28;20058;-73
2023/01/03 02:56:22;;;;;;;3.30;1.80;;;;;;;;;;5021643;28;20132;-73
2023/01/03 02:58:50;;;;;;;3.17;1.80;;;;;;;;;;5030665;28;20062;-73
2023/01/03 03:01:17;;;;;;;3.00;1.80;;;;;;;;;;5033971;28;20060;-73
2023/01/03 03:03:44;;;;;;;2.05;1.58;;;;;;;;;;5037159;28;20498;-73
2023/01/03 03:06:14;;;;;;;3.00;1.77;;;;;;;;;;5037441;28;20059;-73
2023/01/03 03:08:43;;;;;;;2.20;1.63;;;13.70;75.10;;;;;;5026197;28;20128;-73
2023/01/03 03:13:56;;;;;;;2.70;1.90;;;;;;;;;;5017419;28;20045;-73
2023/01/03 03:19:12;;;;;;;2.50;1.80;;;;;;;;;;5025365;28;20658;-73
2023/01/03 03:29:53;;;;;;;2.20;1.80;;;;;;;;;;5016152;28;20057;-73
2023/01/03 03:32:20;;;;;;;3.95;2.17;;;;;;;;;;5017310;28;20045;-73
2023/01/03 03:34:47;;;;;;;2.80;2.20;;;;;;;;;;5017369;28;20049;-73
2023/01/03 03:37:16;;;;;;;2.63;1.92;;;13.50;75.00;;;;;;5020900;28;20054;-73
2023/01/03 03:45:16;;;;;;;3.67;2.00;;;13.50;75.10;;;;;;5017154;28;20049;-73
2023/01/03 03:47:45;;;;;;;3.15;1.90;;;13.50;73.30;;;;;;5017185;28;20057;-73
2023/01/03 03:50:14;;;;;;;2.03;1.55;;;;;;;;;;5017176;28;20517;-73
2023/01/03 03:52:44;;;;;;;3.10;1.80;;;13.60;74.50;;;;;;5016906;28;20058;-73
2023/01/03 03:55:12;;;;;;;2.67;2.08;;;;;;;;;;5017012;28;20067;-73
2023/01/03 03:57:40;;;;;;;2.80;1.83;;;;;;;;;;5017526;28;20057;-73
2023/01/03 04:00:10;;;;;;;3.00;2.03;;;13.60;73.20;;;;;;5016956;28;20046;-73
2023/01/03 04:02:38;;;;;;;3.92;1.92;;;;;;;;;;5017066;28;20067;-73
2023/01/03 04:05:06;;;;;;;2.28;1.95;;;;;;;;;;5017654;28;20054;-73
2023/01/03 04:07:33;;;;;;;4.43;1.90;;;;;;;;;;5029263;28;20053;-73
2023/01/03 04:10:02;;;;;;;2.35;1.90;;;;;;;;;;5036841;28;20495;-73
2023/01/03 04:12:29;;;;;;;3.55;2.17;;;;;;;;;;5034514;28;20688;-73
2023/01/03 04:14:56;;;;;;;4.03;2.13;;;;;;;;;;5033565;28;20627;-73
2023/01/03 04:17:23;;;;;;;2.65;2.08;;;;;;;;;;5033409;28;20479;-73
2023/01/03 04:19:50;;;;;;;2.80;2.00;;;;;;;;;;5033529;28;20474;-73
2023/01/03 04:22:17;;;;;;;4.47;2.00;;;;;;;;;;5021950;28;20570;-73
2023/01/03 04:24:44;;;;;;;3.70;2.20;;;;;;;;;;5013874;28;20063;-72
2023/01/03 04:27:13;;;;;;;3.92;2.00;;;;;;;;;;5013809;28;20064;-73
2023/01/03 04:29:40;;;;;;;4.43;2.58;;;;;;;;;;5013580;28;20054;-73
2023/01/03 04:32:08;;;;;;;3.03;2.13;;;;;;;;;;5013650;28;20133;-73
2023/01/03 04:34:36;;;;;;;3.55;2.30;;;;;;;;;;5013768;28;20057;-73
2023/01/03 04:37:03;;;;;;;2.45;2.00;;;;;;;;;;5024887;28;20041;-73
2023/01/03 04:39:30;;;;;;;2.50;2.03;;;;;;;;;;5033261;28;20058;-73
2023/01/03 04:41:57;;;;;;;3.35;2.00;;;;;;;;;;5033271;28;20087;-73
2023/01/03 04:44:24;;;;;;;4.78;2.25;;;;;;;;;;5033431;28;20053;-73
2023/01/03 04:46:51;;;;;;;3.22;2.10;;;;;;;;;;5032959;28;20057;-73
2023/01/03 04:49:19;;;;;;;3.60;2.10;;;;;;;;;;5033309;28;20049;-73
2023/01/03 04:51:46;;;;;;;2.85;2.30;;;;;;;;;;5032805;28;20049;-73
2023/01/03 04:54:13;;;;;;;3.47;1.98;;;;;;;;;;5033082;28;20057;-73
2023/01/03 04:56:40;;;;;;;3.55;2.00;;;;;;;;;;5033052;28;20053;-73
2023/01/03 04:59:07;;;;;;;4.55;2.30;;;;;;;;;;5032834;28;20410;-73
2023/01/03 05:01:35;;;;;;;3.70;1.90;;;;;;;;;;5032957;28;20491;-73
2023/01/03 05:04:03;;;;;;;3.28;1.98;;;;;;;;;;5032133;28;20512;-73
2023/01/03 05:06:30;;;;;;;2.47;1.92;;;;;;;;;;5012822;28;20074;-73
2023/01/03 05:08:57;;;;;;;3.03;2.05;;;;;;;;;;5013049;28;20080;-73
2023/01/03 05:11:24;;;;;;;2.92;2.10;;;;;;;;;;5012612;28;20128;-73
2023/01/03 05:13:51;;;;;;;3.00;2.20;;;;;;;;;;5013840;28;20095;-73
2023/01/03 05:16:19;;;;;;;2.83;2.38;;;;;;;;;;5012607;28;20060;-73
2023/01/03 05:18:48;;;;;;;3.53;2.10;;;;;;;;;;5015181;28;20052;-73
2023/01/03 05:26:45;;;;;;;2.63;2.33;;;;;;;;;;5032300;28;19917;-73
2023/01/03 05:29:12;;;;;;;3.70;2.30;;;;;;;;;;5032535;28;20148;-73
2023/01/03 05:31:39;;;;;;;3.05;2.20;;;;;;;;;;5032460;28;20051;-73
2023/01/03 05:34:08;;;;;;;3.88;2.25;;;;;;;;;;5031965;28;20057;-73
2023/01/03 05:36:35;;;;;;;3.20;2.42;;;;;;;;;;5031781;28;20050;-73
2023/01/03 05:39:02;;;;;;;3.03;2.40;;;;;;;;;;5031995;28;20061;-73
2023/01/03 05:44:13;;;;;;;4.03;2.13;;;;;;;;;;5031948;28;20054;-73
2023/01/03 05:46:40;;;;;;;3.00;2.30;;;;;;;;;;5032201;28;20079;-73
2023/01/03 05:49:09;;;;;;;4.22;2.30;;;;;;;;;;5031068;28;20421;-73
2023/01/03 05:51:36;;;;;;;3.85;2.42;;;;;;;;;;5031802;28;20057;-73
2023/01/03 05:54:03;;;;;;;4.47;2.45;;;;;;;;;;5032909;28;20049;-73
2023/01/03 05:56:30;;;;;;;3.00;2.30;;;;;;;;;;5031771;28;20050;-73
2023/01/03 05:58:57;;;;;;;2.80;2.20;;;;;;;;;;5031723;28;20064;-73
2023/01/03 06:01:27;;;;;;;3.58;2.35;;;;;;;;;;5031384;28;20060;-73
2023/01/03 06:03:54;;;;;;;4.13;2.70;;;;;;;;;;5013219;28;20050;-73
2023/01/03 06:06:22;;;;;;;3.63;2.40;;;;;;;;;;5012065;28;20056;-73
2023/01/03 06:08:49;;;;;;;3.55;2.38;;;;;;;;;;5011770;28;20057;-73
2023/01/03 06:11:16;;;;;;;3.20;2.38;;;;;;;;;;5012163;28;20057;-73
2023/01/03 06:13:43;;;;;;;2.88;2.22;;;;;;;;;;5012900;28;20057;-73
2023/01/03 06:18:56;;;;;;;;;;;;;;;;;;5019780;28;20410;-73
2023/01/03 06:21:24;;;;;;;3.50;2.40;;;;;;;;;;5031649;28;19921;-73
2023/01/03 06:23:51;;;;;;;3.60;2.40;;;;;;;;;;5031206;28;20056;-74
2023/01/03 06:26:19;;;;;;;2.58;2.25;;;13.40;73.30;;;;;;5031414;28;20053;-73
2023/01/03 06:28:46;;;;;;;3.50;2.50;;;;;;;;;;5031562;28;20415;-73
2023/01/03 06:31:13;;;;;;;3.42;2.60;;;;;;;;;;5031332;28;20053;-73
2023/01/03 06:33:40;;;;;;;3.25;2.53;;;;;;;;;;5015133;28;20049;-73
2023/01/03 06:36:08;;;;;;;4.97;3.05;;;;;;;;;;5013429;28;20079;-73
2023/01/03 06:38:37;;;;;;;4.57;2.97;;;;;;;;;;5031184;28;20402;-73
2023/01/03 06:41:04;;;;;;;3.70;2.60;;;;;;;;;;5031136;28;20570;-73
2023/01/03 06:43:31;;;;;;;3.38;2.70;;;;;;;;;;5031067;28;20414;-73
2023/01/03 06:54:18;;;;;;;3.92;2.90;;;13.40;75.00;;;;;;5011435;28;20054;-73
2023/01/03 06:56:45;;;;;;;4.18;2.80;;;;;;;;;;5010862;28;20054;-73
2023/01/03 06:59:12;;;;;;;4.43;2.80;;;;;;;;;;5010741;28;20060;-73
2023/01/03 07:01:40;;;;;;;4.70;3.10;;;;;;;;;;5026735;28;20059;-73
2023/01/03 07:04:07;;;;;;;2.70;2.30;;;;;;;;;;5031536;28;20050;-73
2023/01/03 07:06:34;;;;;;;4.30;2.80;;;;;;;;;;5030882;28;20048;-73
2023/01/03 07:09:01;;;;;;;3.90;2.88;;;;;;;;;;5030854;28;20064;-73
2023/01/03 07:11:29;;;;;;;4.53;3.10;;;;;;;;;;5030743;28;20449;-73
2023/01/03 07:13:58;;;;;;;3.75;2.67;;;;;;;;;;5030765;28;20409;-73
2023/01/03 07:16:25;;;;;;;3.30;2.75;;;;;;;;;;5027728;28;20053;-73
2023/01/03 07:18:52;;;;;;;3.58;2.65;;;;;;;;;;5011139;28;20068;-72
2023/01/03 07:21:20;;;;;;;4.15;2.80;;;;;;;;;;5010917;28;20058;-73
2023/01/03 07:23:47;;;;;;;5.00;2.90;;;;;;;;;;5010852;28;20053;-73
2023/01/03 07:26:14;;;;;;;4.18;2.85;;;;;;;;;;5012162;28;20129;-73
2023/01/03 07:28:42;;;;;;;3.72;2.67;;;;;;;;;;5021496;28;20056;-73
2023/01/03 07:31:09;;;;;;;4.00;2.85;;;;;;;;;;5017280;28;20141;-72
2023/01/03 07:33:37;;;;;;;3.50;2.28;;;;;;;;;;5016911;28;20045;-72
2023/01/03 07:36:06;;;;;;;3.90;2.45;;;;;;;;;;5013928;28;20057;-72
2023/01/03 07:38:33;;;;;;;3.97;2.38;;;;;;;;;;5030142;28;20053;-73
2023/01/03 07:41:00;;;;;;;3.33;2.50;;;;;;;;;;5030338;28;20057;-73
2023/01/03 07:43:38;;;;;;;3.75;2.63;;;;;;;;;;5031385;28;20049;-72
2023/01/03 07:46:07;;;;;;;4.95;2.83;;;13.90;74.20;;;;;;5026245;28;20052;-73
2023/01/03 07:48:35;;;;;;;3.83;2.60;;;;;;;;;;5023665;28;20057;-72
2023/01/03 07:51:02;;;;;;;4.20;2.83;;;;;;;;;;5025267;28;20046;-73
2023/01/03 07:53:29;;;;;;;3.38;2.60;;;;;;;;;;5023878;28;20050;-73
2023/01/03 07:56:02;;;;;;;3.40;2.40;;;;;;;;;;5023575;28;20053;-72
2023/01/03 07:58:29;;;;;;;4.20;2.70;;;;;;;;;;5026550;28;20042;-72
2023/01/03 08:00:56;;;;;;;4.00;2.60;;;;;;;;;;5022314;28;20057;-73
2023/01/03 08:03:24;;;;;;;3.65;2.50;;;;;;;;;;5025798;28;20141;-72
2023/01/03 08:05:51;;;;;;;4.18;2.50;;;;;;;;;;5024414;28;20060;-73
2023/01/03 08:08:18;;;;;;;4.63;2.67;;;;;;;;;;5022008;28;20057;-73
2023/01/03 08:13:30;;;;;;;3.60;2.72;;;;;;;;;;5024353;28;20045;-73
2023/01/03 08:15:57;;;;;;;4.07;2.45;;;;;;;;;;5022204;28;20049;-72
2023/01/03 08:18:26;;;;;;;3.00;2.33;;;;;;;;;;5024636;28;20068;-73
2023/01/03 08:20:54;;;;;;;3.15;2.45;;;;;;;;;;5022272;28;20053;-73
2023/01/03 08:23:21;;;;;;;3.33;2.55;;;;;;;;;;5022141;28;20092;-72
2023/01/03 08:25:48;;;;;;;3.65;2.50;;;;;;;;;;5024551;28;20053;-73
2023/01/03 08:28:15;;;;;;;4.07;2.70;;;;;;;;;;5022884;28;20054;-72
2023/01/03 08:30:44;;;;;;;3.42;2.47;;;14.20;73.20;;;;;;5025865;28;20053;-72
2023/01/03 08:33:11;;;;;;;3.72;2.72;;;;;;;;;;5019347;28;20053;-73
2023/01/03 08:35:40;;;;;;;4.93;2.72;;;;;;;;;;5019625;28;20052;-72
2023/01/03 08:38:07;;;;;;;3.72;2.67;;;;;;;;;;5019311;28;20042;-73
2023/01/03 08:40:35;;;;;;;3.72;2.60;;;;;;;;;;5020509;28;20052;-72
2023/01/03 08:43:03;;;;;;;4.40;2.58;;;;;;;;;;5022735;28;20495;-73
2023/01/03 08:45:30;;;;;;;3.72;2.75;;;;;;;;;;5027460;28;20053;-73
2023/01/03 08:47:58;;;;;;;4.40;2.55;;;;;;;;;;5023854;28;20056;-72
2023/01/03 08:50:25;;;;;;;3.13;2.60;;;;;;;;;;5025271;28;20047;-74
2023/01/03 08:52:53;;;;;;;3.30;2.55;;;;;;;;;;5024892;28;20133;-73
2023/01/03 08:55:20;;;;;;;3.28;2.38;;;;;;;;;;5033925;28;20053;-73
2023/01/03 08:57:47;;;;;;;3.15;2.35;;;;;;;;;;5032485;28;20056;-73
2023/01/03 09:00:15;;;;;;;4.25;2.55;;;;;;;;;;5016072;28;20097;-73
2023/01/03 09:02:42;;;;;;;3.35;2.60;;;;;;;;;;5013018;28;20054;-73
2023/01/03 09:05:09;;;;;;;3.17;2.50;;;;;;;;;;5013060;28;20053;-73
2023/01/03 09:07:36;;;;;;;3.20;2.38;;;;;;;;;;5012737;28;20045;-72
2023/01/03 09:10:05;;;;;;;3.08;2.67;;;;;;;;;;5012712;28;20064;-72
2023/01/03 09:12:32;;;;;;;2.92;2.20;;;;;;;;;;5012697;28;20578;-72
2023/01/03 09:14:59;;;;;;;3.08;2.40;;;;;;;;;;5033745;28;20055;-72
2023/01/03 09:17:26;;;;;;;3.17;2.35;;;;;;;;;;5033497;28;20128;-72
2023/01/03 09:19:53;;;;;;;3.45;2.50;;;;;;;;;;5032541;28;20148;-72
2023/01/03 09:22:21;;;;;;;2.85;2.10;;;;;;;;;;5032303;28;20057;-72
2023/01/03 09:24:48;;;;;;;3.10;2.30;;;;;;;;;;5032501;28;20060;-72
2023/01/03 09:27:16;;;;;;;2.80;2.30;;;;;;;;;;5031900;28;20422;-72
2023/01/03 09:29:43;;;;;;;2.78;2.28;;;;;;;;;;5032409;28;20140;-72
2023/01/03 09:32:10;;;;;;;2.75;2.40;;;;;;;;;;5033338;28;20418;-72
2023/01/03 09:34:37;;;;;;;3.42;2.42;;;;;;;;;;5033116;28;20137;-72
2023/01/03 09:37:04;;;;;;;3.10;2.17;;;;;;;;;;5032719;28;20071;-72
2023/01/03 09:39:32;;;;;;;2.70;2.28;;;;;;;;;;5016298;28;20121;-72
2023/01/03 09:44:45;;;;;;;3.30;2.38;;;;;;;;;;5013425;28;20515;-74
2023/01/03 09:47:16;;;;;;;2.75;2.28;;;14.40;70.80;;;;;;5020097;28;20075;-73
2023/01/03 09:49:43;;;;;;;3.00;2.10;;;;;;;;;;5021990;28;20068;-73
2023/01/03 10:03:43;;;;;;;2.75;2.25;;;14.60;71.60;;;;;;5030429;28;20053;-72
2023/01/03 10:06:20;;;;;;;3.55;2.50;;;;;;;;;;5032867;28;20045;-73
2023/01/03 10:08:58;;;;;;;3.05;2.35;;;14.60;70.20;;;;;;5032533;28;20132;-73
2023/01/03 10:11:28;;;;;;;2.78;2.35;;;;;;;;;;5025702;28;20067;-72
2023/01/03 10:14:03;;;;;;;3.28;2.30;;;14.60;72.40;;;;;;5012738;28;20141;-72
2023/01/03 10:16:39;;;;;;;2.90;2.58;;;14.60;71.20;;;;;;5011938;28;20057;-73
2023/01/03 10:19:20;;;;;;;;;;;14.50;72.60;;;;;;5027434;28;20469;-73
2023/01/03 10:21:51;;;;;;;3.28;2.55;;;14.60;70.40;;;;;;5029166;28;20011;-73
2023/01/03 10:24:19;;;;;;;3.17;2.35;;;;;;;;;;5030832;28;20057;-73
2023/01/03 10:26:48;;;;;;;3.03;2.40;;;14.60;72.20;;;;;;5031207;28;20060;-73
2023/01/03 10:29:16;;;;;;;3.67;2.47;;;;;;;;;;5024448;28;20073;-73
2023/01/03 10:31:57;;;;;;;3.72;2.67;;;14.60;72.00;;;;;;5019853;28;20058;-73
2023/01/03 10:34:25;;;;;;;3.92;2.83;;;;;;;;;;5020915;28;20045;-73
2023/01/03 10:36:52;;;;;;;3.75;2.75;;;;;;;;;;5018571;28;20380;-73
2023/01/03 10:39:27;;;;;;;3.33;2.58;;;;;;;;;;5026095;28;20394;-73
2023/01/03 10:41:55;;;;;;;;;;;14.70;70.30;;;;;;5032686;28;20053;-73
2023/01/03 10:44:24;;;;;;;3.60;2.67;;;;;;;;;;5018947;28;19921;-73
2023/01/03 10:46:53;;;;;;;3.30;2.70;;;;;;;;;;5018206;28;20533;-74
2023/01/03 10:49:21;;;;;;;3.55;2.60;;;14.60;70.70;;;;;;5025338;28;20479;-72
2023/01/03 10:51:54;;;;;;;3.55;2.80;;;14.70;72.40;;;;;;5012378;28;20054;-73
2023/01/03 10:54:25;;;;;;;3.38;2.47;;;;;;;;;;5020994;28;20056;-73
2023/01/03 10:56:52;;;;;;;2.80;2.35;;;;;;;;;;5012411;28;20056;-74
2023/01/03 10:59:22;;;;;;;3.83;2.50;;;;;;;;;;5017016;28;20099;-73
2023/01/03 11:02:01;;;;;;;3.15;2.60;;;14.50;70.90;;;;;;5030706;28;20136;-74
2023/01/03 11:04:28;;;;;;;3.33;2.70;;;;;;;;;;5030878;28;20064;-75
2023/01/03 11:06:59;;;;;;;3.72;2.80;;;;;;;;;;5030949;28;20145;-74
2023/01/03 11:09:27;;;;;;;3.75;2.90;;;;;;;;;;5030726;28;20057;-74
2023/01/03 11:11:54;;;;;;;5.60;3.40;;;;;;;;;;5022164;28;20068;-74
2023/01/03 11:14:23;;;;;;;3.58;2.90;;;;;;;;;;5017009;28;20047;-74
2023/01/03 11:16:58;;;;;;;4.13;2.95;;;;;;;;;;5020925;28;20053;-73
2023/01/03 11:19:28;;;;;;;4.38;3.40;;;;;;;;;;5012217;28;20054;-72
2023/01/03 11:21:56;;;;;;;5.53;3.83;;;;;;;;;;5011863;28;20380;-72
2023/01/03 11:24:32;;;;;;;8.65;3.80;;;14.50;72.60;;;;;;5015989;28;20472;-73
2023/01/03 11:27:02;;;;;;;4.15;3.30;;;14.40;71.80;;;;;;5014918;28;20067;-73
2023/01/03 11:29:33;;;;;;;7.10;3.70;;;;;;;;;;5027228;28;20482;-73
2023/01/03 11:32:06;;;;;;;4.43;3.28;;;14.40;72.50;;;;;;5031122;28;20050;-73
2023/01/03 11:34:45;;;;;;;5.45;4.07;;;14.40;72.60;;;;;;5015752;28;20048;-73
2023/01/03 11:37:15;;;;;;;4.32;3.22;;;14.50;70.30;;;;;;5025403;28;20132;-73
2023/01/03 11:39:53;;;;;;;6.45;3.47;;;14.40;71.60;;;;;;5034209;28;20145;-73
2023/01/03 11:42:31;;;;;;;7.00;3.58;;;;;;;;;;5019746;28;20054;-73
2023/01/03 11:45:07;;;;;;;5.60;3.67;;;;;;;;;;5034082;28;20483;-73
2023/01/03 11:47:36;;;;;;;5.18;3.80;;;14.40;72.60;;;;;;5032313;28;20060;-73
2023/01/03 11:50:10;;;;;;;5.80;3.58;;;;;;;;;;5033038;28;20438;-73
2023/01/03 11:52:39;;;;;;;6.43;4.15;;;;;;;;;;5033877;28;20132;-73
2023/01/03 11:55:31;;;;;;;4.70;3.83;;;14.50;73.00;;;;;;5022442;28;20064;-73
2023/01/03 11:58:04;;;;;;;7.10;4.15;;;14.40;73.00;;;;;;5019048;28;20049;-73
2023/01/03 12:00:34;;;;;;;6.43;3.60;;;14.40;73.00;;;;;;5016417;28;20045;-73
2023/01/03 12:03:11;;;;;;;7.10;3.35;;;14.40;72.90;;;;;;5014171;28;20141;-73
2023/01/03 12:05:49;;;;;;;8.93;4.25;;;14.40;73.30;;;;;;5013843;28;20469;-73
2023/01/03 12:08:32;;;;;;;6.68;3.40;;;14.40;73.20;;;;;;5013920;28;20053;-73
2023/01/03 12:11:01;;;;;;;5.55;3.60;;;14.30;72.50;;;;;;5023667;28;20413;-73
2023/01/03 12:13:30;;;;;;;6.00;3.80;;;14.30;72.90;;;;;;5030192;28;20053;-73
2023/01/03 12:15:59;;;;;;;7.82;3.47;;;;;;;;;;5020229;28;20399;-73
2023/01/03 12:18:28;;;;;;;5.32;4.05;;;14.40;73.00;;;;;;5031954;28;20069;-73
2023/01/03 12:20:58;;;;;;;5.35;3.50;;;14.30;73.00;;;;;;5015136;28;20064;-73
2023/01/03 12:23:31;;;;;;;4.75;3.58;;;14.30;73.00;;;;;;5016111;28;20049;-73
2023/01/03 12:26:00;;;;;;;5.43;3.65;;;14.30;73.10;;;;;;5024129;28;20533;-73
2023/01/03 12:28:28;;;;;;;4.45;3.42;;;;;;;;;;5024916;28;20057;-73
2023/01/03 12:30:57;;;;;;;5.75;3.75;;;14.20;71.10;;;;;;5022459;28;20059;-73
2023/01/03 12:33:25;;;;;;;7.10;3.95;;;;;;;;;;5024953;28;20458;-73
2023/01/03 12:35:58;;;;;;;4.82;3.53;;;14.30;73.00;;;;;;5023523;28;20061;-73
2023/01/03 12:38:26;;;;;;;4.30;3.28;;;;;;;;;;5028433;28;20051;-73
2023/01/03 12:40:54;;;;;;;7.97;3.70;;;14.10;73.10;;;;;;5026299;28;20140;-73
2023/01/03 12:43:25;;;;;;;6.80;3.60;;;;;;;;;;5013019;28;20049;-73
2023/01/03 12:45:53;;;;;;;5.40;3.60;;;;;;;;;;5020187;28;20128;-73
2023/01/03 12:48:41;;;;;;;4.72;3.85;;;;;;;;;;5025003;28;20052;-73
2023/01/03 12:51:09;;;;;;;4.07;3.28;;;;;;;;;;5021998;28;20129;-73
2023/01/03 12:53:37;;;;;;;5.75;3.67;;;;;;;;;;5025915;28;20052;-73
2023/01/03 12:56:16;;;;;;;4.40;3.70;;;14.10;72.10;;;;;;5019851;28;20072;-73
2023/01/03 12:58:47;;;;;;;5.10;3.47;;;;;;;;;;5022273;28;20059;-73
2023/01/03 13:01:16;;;;;;;6.13;3.30;;;14.10;73.00;;;;;;5024254;28;20041;-73
2023/01/03 13:03:44;;;;;;;5.00;3.53;;;;;;;;;;5028320;28;20092;-73
2023/01/03 13:06:15;;;;;;;4.88;3.20;;;14.00;73.20;;;;;;5032241;28;20062;-73
2023/01/03 13:08:43;;;;;;;5.32;3.58;;;14.10;73.30;;;;;;5033117;28;20045;-73
2023/01/03 13:11:16;;;;;;;5.97;3.40;;;14.10;73.30;;;;;;5032301;28;20049;-73
2023/01/03 13:13:48;;;;;;;6.22;3.55;;;;;;;;;;5032396;28;20132;-74
2023/01/03 13:16:34;;;;;;;4.88;3.38;;;;;;;;;;5032214;28;20132;-74
2023/01/03 13:19:16;;;;;;;4.78;3.20;;;;;;;;;;5024152;28;20050;-74
2023/01/03 13:21:51;;;;;;;4.45;3.33;;;;;;;;;;5018298;28;20061;-74
2023/01/03 13:24:39;;;;;;;6.28;3.33;;;14.10;73.30;;;;;;5032295;28;20140;-74
2023/01/03 13:27:21;;;;;;;5.93;3.50;;;14.10;73.40;;;;;;5032406;28;20049;-73
2023/01/03 13:29:54;;;;;;;4.30;3.42;;;;;;;;;;5031999;28;20096;-73
2023/01/03 13:32:25;;;;;;;4.53;3.08;;;;;;;;;;5024830;28;20145;-73
2023/01/03 13:35:19;;;;;;;4.60;3.08;;;14.10;72.40;;;;;;5019582;28;20059;-73
2023/01/03 13:37:49;;;;;;;5.65;3.15;;;;;;;;;;5032384;28;20042;-73
2023/01/03 13:40:27;;;;;;;7.38;3.17;;;14.10;73.40;;;;;;5031571;28;20060;-73
2023/01/03 13:43:04;;;;;;;3.72;3.30;;;;;;;;;;5016370;28;20108;-73
2023/01/03 13:45:59;;;;;;;4.55;2.80;;;14.20;73.30;;;;;;5012000;28;20064;-73
2023/01/03 13:48:30;;;;;;;4.70;3.20;;;;;;;;;;5013234;28;20042;-73
2023/01/03 13:51:28;;;;;;;3.88;2.80;;;14.10;73.30;;;;;;5027330;28;20049;-74
2023/01/03 13:54:01;;;;;;;12.40;3.40;;;;;;;;;;5031179;28;20410;-73
2023/01/03 13:56:29;;;;;;;10.55;3.50;;;;;;;;;;5012212;28;20454;-73
2023/01/03 13:58:58;;;;;;;7.25;3.22;;;;;;;;;;5014103;28;20060;-73
2023/01/03 14:01:54;;;;;;;8.00;3.42;;;14.20;72.50;;;;;;5024633;28;20246;-73
2023/01/03 14:04:51;;;;;;;7.60;2.90;;;14.20;73.60;;;;;;5019548;28;20046;-73
2023/01/03 14:07:28;;;;;;;7.70;3.28;;;;;;;;;;5022386;28;20046;-73
2023/01/03 14:09:58;;;;;;;6.40;2.90;;;;;;;;;;5023488;28;20132;-73
2023/01/03 14:12:29;;;;;;;6.40;3.10;;;;;;;;;;5020189;28;20060;-73
2023/01/03 14:14:57;;;;;;;8.95;3.08;;;;;;;;;;5020303;28;20132;-73
2023/01/03 14:17:24;;;;;;;10.43;3.42;;;;;;;;;;5036413;28;20060;-73
2023/01/03 14:19:51;;;;;;;6.35;2.70;;;;;;;;;;5022476;28;20056;-73
2023/01/03 14:22:20;;;;;;;5.93;3.00;;;;;;;;;;5020187;28;20062;-73
2023/01/03 14:24:47;;;;;;;7.40;2.78;;;;;;;;;;5021519;28;20111;-73
2023/01/03 14:27:16;;;;;;;10.60;3.10;;;;;;;;;;5021356;28;20129;-73
2023/01/03 14:29:44;;;;;;;5.35;2.85;;;;;;;;;;5044873;28;20140;-73
2023/01/03 14:32:17;;;;;;;7.03;2.58;;;;;;;;;;5022091;28;20124;-73
2023/01/03 14:34:44;;;;;;;5.30;2.67;;;;;;;;;;5031294;28;20054;-73
2023/01/03 14:37:13;;;;;;;7.20;2.80;;;;;;;;;;5031716;28;20128;-72
2023/01/03 14:39:40;;;;;;;7.28;2.78;;;;;;;;;;5030808;28;20568;-73
2023/01/03 14:42:07;;;;;;;9.20;2.85;;;;;;;;;;5031360;28;20053;-72
2023/01/03 14:44:36;;;;;;;5.65;2.42;;;;;;;;;;5030880;28;20053;-74
2023/01/03 14:47:04;;;;;;;4.57;2.92;;;14.50;73.10;;;;;;5022494;28;20140;-72
2023/01/03 14:49:37;;;;;;;5.05;2.60;;;14.40;73.30;;;;;;5013908;28;20475;-72
2023/01/03 14:52:06;;;;;;;2.95;2.38;;;;;;;;;;5010883;28;20510;-72
2023/01/03 14:54:33;;;;;;;5.90;2.80;;;;;;;;;;5010954;28;20042;-72
2023/01/03 14:57:00;;;;;;;5.13;2.40;;;;;;;;;;5010606;28;20052;-71
2023/01/03 14:59:27;;;;;;;5.63;2.50;;;;;;;;;;5017965;28;20033;-71
2023/01/03 15:01:56;;;;;;;4.78;2.63;;;;;;;;;;5029597;28;20057;-71
2023/01/03 15:04:23;;;;;;;3.97;2.47;;;14.60;71.20;;;;;;5030331;28;20055;-72
2023/01/03 15:06:58;;;;;;;4.22;2.50;;;14.60;72.50;;;;;;5029564;28;20486;-72
2023/01/03 15:09:25;;;;;;;;;;;;;;;;;;5030502;28;20046;-72
2023/01/03 15:11:59;;;;;;;6.35;2.67;;;;;;;;;;5031743;28;19921;-71
2023/01/03 15:14:26;;;;;;;5.88;2.47;;;14.40;72.80;;;;;;5030582;28;20459;-72
2023/01/03 15:17:02;;;;;;;4.70;2.40;;;;;;;;;;5031830;28;20046;-71
2023/01/03 15:19:29;;;;;;;;;;;14.50;73.50;;;;;;5031951;28;20486;-71
2023/01/03 15:22:05;;;;;;;5.63;2.55;;;;;;;;;;5030467;28;20285;-71
2023/01/03 15:24:33;;;;;;;3.35;2.40;;;;;;;;;;5030072;28;20517;-71
2023/01/03 15:27:00;;;;;;;5.25;2.35;;;;;;;;;;5030624;28;20215;-71
2023/01/03 15:29:27;;;;;;;5.00;2.42;;;;;;;;;;5030594;28;20414;-72